88119 UUMU-UUMU
Flight info
| Callsign | 88119 |
|---|---|
| Flight time | N/A |
| Altitude | 28000 |
| Route | /RA/M0060 /UUR269/F280 |
| Aircraft | T154/M-S/C |
Departure
| Time | 2026-04-17 16:37 |
|---|---|
| Airport | Chkalovskiy Air Base (UUMU) |
Arrival
| Time | N/A |
|---|---|
| Airport | Chkalovskiy Air Base (UUMU) |
| Time | Latitude | Longitude | Altitude | Speed | Heading |
|---|---|---|---|---|---|
| 2026-04-17 16:08 | 55.87816 | 38.02903 | 509 ft | 0 kts | 102° |
| 2026-04-17 16:27 | 55.87815 | 38.02908 | 509 ft | 2 kts | 102° |
| 2026-04-17 16:28 | 55.87813 | 38.02982 | 509 ft | 6 kts | 61° |
| 2026-04-17 16:28 | 55.87855 | 38.03017 | 509 ft | 7 kts | 12° |
| 2026-04-17 16:28 | 55.87908 | 38.03038 | 509 ft | 9 kts | 12° |
| 2026-04-17 16:28 | 55.87973 | 38.03064 | 509 ft | 10 kts | 12° |
| 2026-04-17 16:29 | 55.88042 | 38.03091 | 509 ft | 9 kts | 12° |
| 2026-04-17 16:29 | 55.88104 | 38.03113 | 509 ft | 8 kts | 12° |
| 2026-04-17 16:29 | 55.88153 | 38.03131 | 509 ft | 6 kts | 11° |
| 2026-04-17 16:29 | 55.88190 | 38.03143 | 509 ft | 4 kts | 10° |
| 2026-04-17 16:30 | 55.88215 | 38.03151 | 509 ft | 2 kts | 10° |
| 2026-04-17 16:30 | 55.88231 | 38.03156 | 509 ft | 2 kts | 10° |
| 2026-04-17 16:30 | 55.88253 | 38.03163 | 509 ft | 4 kts | 10° |
| 2026-04-17 16:30 | 55.88286 | 38.03173 | 509 ft | 5 kts | 9° |
| 2026-04-17 16:31 | 55.88331 | 38.03187 | 509 ft | 7 kts | 9° |
| 2026-04-17 16:31 | 55.88387 | 38.03204 | 509 ft | 8 kts | 9° |
| 2026-04-17 16:31 | 55.88446 | 38.03227 | 509 ft | 8 kts | 17° |
| 2026-04-17 16:31 | 55.88502 | 38.03263 | 509 ft | 7 kts | 22° |
| 2026-04-17 16:32 | 55.88547 | 38.03296 | 509 ft | 6 kts | 22° |
| 2026-04-17 16:32 | 55.88587 | 38.03318 | 509 ft | 7 kts | 11° |
| 2026-04-17 16:32 | 55.88633 | 38.03336 | 509 ft | 5 kts | 26° |
| 2026-04-17 16:32 | 55.88650 | 38.03384 | 509 ft | 4 kts | 78° |
| 2026-04-17 16:33 | 55.88650 | 38.03425 | 509 ft | 2 kts | 98° |
| 2026-04-17 16:33 | 55.88647 | 38.03462 | 509 ft | 3 kts | 97° |
| 2026-04-17 16:33 | 55.88643 | 38.03523 | 509 ft | 6 kts | 97° |
| 2026-04-17 16:33 | 55.88638 | 38.03590 | 509 ft | 4 kts | 97° |
| 2026-04-17 16:34 | 55.88634 | 38.03647 | 509 ft | 4 kts | 97° |
| 2026-04-17 16:34 | 55.88637 | 38.03688 | 509 ft | 3 kts | 61° |
| 2026-04-17 16:34 | 55.88666 | 38.03721 | 509 ft | 7 kts | 21° |
| 2026-04-17 16:34 | 55.88728 | 38.03742 | 509 ft | 8 kts | 9° |
| 2026-04-17 16:35 | 55.88783 | 38.03757 | 509 ft | 7 kts | 8° |
| 2026-04-17 16:35 | 55.88824 | 38.03797 | 509 ft | 7 kts | 60° |
| 2026-04-17 16:35 | 55.88818 | 38.03889 | 509 ft | 7 kts | 124° |
| 2026-04-17 16:35 | 55.88804 | 38.03919 | 509 ft | 1 kts | 131° |
| 2026-04-17 16:36 | 55.88802 | 38.03924 | 509 ft | 0 kts | 131° |
| 2026-04-17 16:36 | 55.88768 | 38.03994 | 509 ft | 31 kts | 131° |
| 2026-04-17 16:36 | 55.88423 | 38.04711 | 510 ft | 121 kts | 131° |
| 2026-04-17 16:36 | 55.87757 | 38.06103 | 616 ft | 180 kts | 132° |
| 2026-04-17 16:37 | 55.86904 | 38.07843 | 1126 ft | 203 kts | 132° |
| 2026-04-17 16:37 | 55.85896 | 38.09877 | 1628 ft | 240 kts | 133° |
| 2026-04-17 16:37 | 55.84767 | 38.12086 | 2144 ft | 245 kts | 134° |
| 2026-04-17 16:37 | 55.83729 | 38.14463 | 2516 ft | 252 kts | 117° |
| 2026-04-17 16:38 | 55.83331 | 38.17439 | 2763 ft | 250 kts | 87° |
| 2026-04-17 16:38 | 55.83808 | 38.20271 | 3207 ft | 238 kts | 53° |
| 2026-04-17 16:38 | 55.84957 | 38.22402 | 3478 ft | 241 kts | 40° |
| 2026-04-17 16:38 | 55.86239 | 38.24392 | 3605 ft | 253 kts | 39° |
| 2026-04-17 16:39 | 55.87620 | 38.26430 | 3912 ft | 256 kts | 36° |
| 2026-04-17 16:39 | 55.89185 | 38.27732 | 4404 ft | 245 kts | 2° |
| 2026-04-17 16:39 | 55.90752 | 38.27077 | 4857 ft | 233 kts | 322° |
| 2026-04-17 16:39 | 55.91867 | 38.25050 | 5302 ft | 227 kts | 308° |
| 2026-04-17 16:40 | 55.92872 | 38.22859 | 5622 ft | 233 kts | 308° |
| 2026-04-17 16:40 | 55.93928 | 38.20619 | 5806 ft | 244 kts | 310° |
| 2026-04-17 16:40 | 55.95055 | 38.18310 | 6120 ft | 248 kts | 309° |
| 2026-04-17 16:40 | 55.96158 | 38.16021 | 6704 ft | 242 kts | 310° |
| 2026-04-17 16:41 | 55.97204 | 38.13865 | 7261 ft | 235 kts | 309° |
| 2026-04-17 16:41 | 55.98254 | 38.11639 | 7709 ft | 234 kts | 309° |
| 2026-04-17 16:41 | 55.99306 | 38.09405 | 8002 ft | 240 kts | 309° |
| 2026-04-17 16:41 | 56.00557 | 38.07296 | 8129 ft | 255 kts | 326° |
| 2026-04-17 16:42 | 56.02230 | 38.06081 | 8375 ft | 264 kts | 346° |
| 2026-04-17 16:42 | 56.03992 | 38.05443 | 9005 ft | 254 kts | 343° |
| 2026-04-17 16:42 | 56.05669 | 38.04617 | 9717 ft | 254 kts | 341° |
| 2026-04-17 16:42 | 56.07393 | 38.03664 | 10437 ft | 261 kts | 341° |
| 2026-04-17 16:43 | 56.09132 | 38.02700 | 11161 ft | 268 kts | 341° |
| 2026-04-17 16:43 | 56.10983 | 38.01890 | 11720 ft | 284 kts | 354° |
| 2026-04-17 16:43 | 56.13005 | 38.02198 | 12288 ft | 300 kts | 13° |
| 2026-04-17 16:43 | 56.15024 | 38.03471 | 12938 ft | 310 kts | 16° |
| 2026-04-17 16:44 | 56.17107 | 38.04629 | 13630 ft | 316 kts | 13° |
| 2026-04-17 16:44 | 56.19245 | 38.05678 | 14349 ft | 321 kts | 12° |
| 2026-04-17 16:44 | 56.21411 | 38.06670 | 15087 ft | 325 kts | 11° |
| 2026-04-17 16:44 | 56.23598 | 38.07635 | 15910 ft | 328 kts | 11° |
| 2026-04-17 16:45 | 56.25805 | 38.08589 | 16654 ft | 332 kts | 11° |
| 2026-04-17 16:45 | 56.28056 | 38.09551 | 17417 ft | 335 kts | 11° |
| 2026-04-17 16:45 | 56.30330 | 38.10519 | 18137 ft | 338 kts | 11° |
| 2026-04-17 16:45 | 56.32632 | 38.11497 | 18857 ft | 341 kts | 11° |
| 2026-04-17 16:46 | 56.34960 | 38.12484 | 19553 ft | 344 kts | 11° |
| 2026-04-17 16:46 | 56.37305 | 38.13476 | 20217 ft | 347 kts | 10° |
| 2026-04-17 16:46 | 56.39638 | 38.14463 | 20872 ft | 350 kts | 11° |
| 2026-04-17 16:46 | 56.42036 | 38.15482 | 21507 ft | 353 kts | 11° |
| 2026-04-17 16:47 | 56.44412 | 38.16494 | 22106 ft | 356 kts | 11° |
| 2026-04-17 16:47 | 56.46850 | 38.17533 | 22719 ft | 359 kts | 11° |
| 2026-04-17 16:47 | 56.49236 | 38.18773 | 23281 ft | 364 kts | 20° |
| 2026-04-17 16:47 | 56.51432 | 38.21111 | 23822 ft | 373 kts | 36° |
| 2026-04-17 16:48 | 56.53253 | 38.24533 | 24351 ft | 381 kts | 49° |
| 2026-04-17 16:48 | 56.54813 | 38.28464 | 24880 ft | 384 kts | 50° |
| 2026-04-17 16:48 | 56.56440 | 38.32343 | 25407 ft | 386 kts | 47° |
| 2026-04-17 16:48 | 56.58154 | 38.36077 | 25878 ft | 388 kts | 45° |
| 2026-04-17 16:49 | 56.59953 | 38.39780 | 26516 ft | 390 kts | 44° |
| 2026-04-17 16:49 | 56.61776 | 38.43445 | 27096 ft | 394 kts | 44° |
| 2026-04-17 16:49 | 56.63620 | 38.47118 | 27713 ft | 397 kts | 43° |
| 2026-04-17 16:49 | 56.65470 | 38.50799 | 28058 ft | 399 kts | 43° |
| 2026-04-17 16:50 | 56.67392 | 38.54621 | 27990 ft | 410 kts | 43° |
| 2026-04-17 16:50 | 56.69333 | 38.58488 | 28004 ft | 418 kts | 44° |
| 2026-04-17 16:50 | 56.73309 | 38.66436 | 27993 ft | 429 kts | 44° |
| 2026-04-17 16:51 | 56.77327 | 38.74535 | 27994 ft | 425 kts | 44° |
| 2026-04-17 16:51 | 56.79315 | 38.78546 | 27991 ft | 422 kts | 44° |
| 2026-04-17 16:51 | 56.81284 | 38.82517 | 27991 ft | 419 kts | 44° |
| 2026-04-17 16:52 | 56.83223 | 38.86430 | 27986 ft | 416 kts | 44° |
| 2026-04-17 16:52 | 56.85154 | 38.90332 | 27981 ft | 414 kts | 44° |
| 2026-04-17 16:52 | 56.87097 | 38.94266 | 27974 ft | 412 kts | 44° |
| 2026-04-17 16:52 | 56.89006 | 38.98135 | 27970 ft | 410 kts | 44° |
| 2026-04-17 16:53 | 56.90923 | 39.02029 | 27966 ft | 408 kts | 44° |
| 2026-04-17 16:53 | 56.92814 | 39.05877 | 27965 ft | 406 kts | 44° |
| 2026-04-17 16:53 | 56.94695 | 39.09710 | 27962 ft | 404 kts | 44° |
| 2026-04-17 16:53 | 56.96578 | 39.13551 | 27962 ft | 402 kts | 44° |
| 2026-04-17 16:54 | 56.98428 | 39.17333 | 27962 ft | 401 kts | 44° |
| 2026-04-17 16:54 | 57.00294 | 39.21154 | 27962 ft | 399 kts | 44° |
| 2026-04-17 16:54 | 57.02137 | 39.24935 | 27967 ft | 397 kts | 44° |
| 2026-04-17 16:54 | 57.03834 | 39.28964 | 27968 ft | 397 kts | 56° |
| 2026-04-17 16:55 | 57.04917 | 39.33604 | 27968 ft | 399 kts | 71° |
| 2026-04-17 16:55 | 57.05303 | 39.38628 | 27971 ft | 401 kts | 86° |
| 2026-04-17 16:55 | 57.04958 | 39.43730 | 27970 ft | 403 kts | 102° |
| 2026-04-17 16:55 | 57.03891 | 39.48523 | 27970 ft | 404 kts | 117° |
| 2026-04-17 16:56 | 57.02197 | 39.52587 | 27968 ft | 405 kts | 134° |
| 2026-04-17 16:56 | 57.00040 | 39.55894 | 27978 ft | 402 kts | 140° |
| 2026-04-17 16:56 | 56.97850 | 39.59141 | 27969 ft | 399 kts | 137° |
| 2026-04-17 16:56 | 56.95827 | 39.62499 | 27970 ft | 396 kts | 134° |
| 2026-04-17 16:57 | 56.93852 | 39.66062 | 27962 ft | 392 kts | 133° |
| 2026-04-17 16:57 | 56.91964 | 39.69632 | 27963 ft | 389 kts | 131° |
| 2026-04-17 16:57 | 56.90107 | 39.73183 | 27964 ft | 386 kts | 134° |
| 2026-04-17 16:57 | 56.87982 | 39.76129 | 27975 ft | 385 kts | 151° |
| 2026-04-17 16:58 | 56.85497 | 39.77933 | 27969 ft | 383 kts | 168° |
| 2026-04-17 16:58 | 56.82856 | 39.78449 | 27970 ft | 378 kts | 185° |
| 2026-04-17 16:58 | 56.80302 | 39.77672 | 27972 ft | 371 kts | 201° |
| 2026-04-17 16:58 | 56.78003 | 39.75703 | 27971 ft | 363 kts | 218° |
| 2026-04-17 16:59 | 56.76104 | 39.72766 | 27612 ft | 356 kts | 234° |
| 2026-04-17 16:59 | 56.74627 | 39.69175 | 27168 ft | 352 kts | 239° |
| 2026-04-17 16:59 | 56.73169 | 39.65564 | 26731 ft | 352 kts | 236° |
| 2026-04-17 16:59 | 56.71612 | 39.62143 | 26319 ft | 352 kts | 233° |
| 2026-04-17 17:00 | 56.69971 | 39.58826 | 25775 ft | 356 kts | 231° |
| 2026-04-17 17:00 | 56.68282 | 39.55557 | 25211 ft | 359 kts | 230° |
| 2026-04-17 17:00 | 56.66555 | 39.52281 | 24676 ft | 360 kts | 230° |
| 2026-04-17 17:00 | 56.64803 | 39.48960 | 24160 ft | 360 kts | 230° |
| 2026-04-17 17:01 | 56.63079 | 39.45697 | 23648 ft | 361 kts | 230° |
| 2026-04-17 17:01 | 56.61326 | 39.42385 | 23170 ft | 359 kts | 230° |
| 2026-04-17 17:01 | 56.59618 | 39.39169 | 22742 ft | 356 kts | 230° |
| 2026-04-17 17:01 | 56.57901 | 39.35939 | 22312 ft | 353 kts | 230° |
| 2026-04-17 17:02 | 56.56220 | 39.32774 | 21856 ft | 352 kts | 229° |
| 2026-04-17 17:02 | 56.54515 | 39.29558 | 21359 ft | 351 kts | 229° |
| 2026-04-17 17:02 | 56.52826 | 39.26381 | 20884 ft | 349 kts | 229° |
| 2026-04-17 17:02 | 56.51145 | 39.23230 | 20424 ft | 347 kts | 229° |
| 2026-04-17 17:03 | 56.49477 | 39.20112 | 19975 ft | 345 kts | 229° |
| 2026-04-17 17:03 | 56.47793 | 39.16969 | 19526 ft | 343 kts | 229° |
| 2026-04-17 17:03 | 56.46153 | 39.13911 | 19090 ft | 340 kts | 229° |
| 2026-04-17 17:03 | 56.44507 | 39.10849 | 18655 ft | 338 kts | 229° |
| 2026-04-17 17:04 | 56.42865 | 39.07797 | 18226 ft | 335 kts | 229° |
| 2026-04-17 17:04 | 56.41249 | 39.04798 | 17808 ft | 332 kts | 229° |
| 2026-04-17 17:04 | 56.39639 | 39.01813 | 17394 ft | 328 kts | 229° |
| 2026-04-17 17:04 | 56.38074 | 38.98915 | 16991 ft | 325 kts | 229° |
| 2026-04-17 17:05 | 56.36487 | 38.95982 | 16577 ft | 320 kts | 229° |
| 2026-04-17 17:05 | 56.34981 | 38.93204 | 16099 ft | 306 kts | 229° |
| 2026-04-17 17:05 | 56.33498 | 38.90471 | 15581 ft | 296 kts | 229° |
| 2026-04-17 17:05 | 56.32108 | 38.87906 | 15063 ft | 287 kts | 230° |
| 2026-04-17 17:06 | 56.30777 | 38.85232 | 14531 ft | 279 kts | 232° |
| 2026-04-17 17:06 | 56.29548 | 38.82641 | 13989 ft | 273 kts | 233° |
| 2026-04-17 17:06 | 56.28317 | 38.80055 | 13432 ft | 268 kts | 232° |
| 2026-04-17 17:06 | 56.27121 | 38.77566 | 12884 ft | 264 kts | 232° |
| 2026-04-17 17:07 | 56.25915 | 38.75076 | 12445 ft | 262 kts | 232° |
| 2026-04-17 17:07 | 56.24709 | 38.72597 | 12114 ft | 260 kts | 232° |
| 2026-04-17 17:07 | 56.23532 | 38.70184 | 11788 ft | 259 kts | 232° |
| 2026-04-17 17:07 | 56.22349 | 38.67762 | 11461 ft | 257 kts | 232° |
| 2026-04-17 17:08 | 56.21161 | 38.65337 | 11134 ft | 255 kts | 231° |
| 2026-04-17 17:08 | 56.20001 | 38.62970 | 10812 ft | 253 kts | 231° |
| 2026-04-17 17:08 | 56.18833 | 38.60585 | 10368 ft | 256 kts | 231° |
| 2026-04-17 17:08 | 56.17650 | 38.58173 | 9927 ft | 258 kts | 231° |
| 2026-04-17 17:09 | 56.16472 | 38.55774 | 9514 ft | 259 kts | 231° |
| 2026-04-17 17:09 | 56.15277 | 38.53344 | 9111 ft | 259 kts | 231° |
| 2026-04-17 17:09 | 56.14084 | 38.50921 | 8719 ft | 258 kts | 231° |
| 2026-04-17 17:09 | 56.12924 | 38.48567 | 8308 ft | 249 kts | 231° |
| 2026-04-17 17:10 | 56.11793 | 38.46275 | 7851 ft | 241 kts | 231° |
| 2026-04-17 17:10 | 56.10703 | 38.44066 | 7454 ft | 238 kts | 230° |
| 2026-04-17 17:10 | 56.09606 | 38.41845 | 7162 ft | 234 kts | 230° |
| 2026-04-17 17:10 | 56.08535 | 38.39678 | 6905 ft | 230 kts | 230° |
| 2026-04-17 17:11 | 56.07491 | 38.37568 | 6727 ft | 228 kts | 230° |
| 2026-04-17 17:11 | 56.06424 | 38.35415 | 6563 ft | 232 kts | 230° |
| 2026-04-17 17:11 | 56.05444 | 38.33432 | 6419 ft | 235 kts | 229° |
| 2026-04-17 17:11 | 56.04533 | 38.31591 | 6280 ft | 234 kts | 229° |
| 2026-04-17 17:12 | 56.03516 | 38.29539 | 6129 ft | 232 kts | 229° |
| 2026-04-17 17:12 | 56.02525 | 38.27538 | 5983 ft | 230 kts | 229° |
| 2026-04-17 17:12 | 56.01487 | 38.25357 | 5779 ft | 229 kts | 231° |
| 2026-04-17 17:12 | 56.00494 | 38.23151 | 5526 ft | 228 kts | 232° |
| 2026-04-17 17:13 | 55.99516 | 38.20955 | 5264 ft | 224 kts | 232° |
| 2026-04-17 17:13 | 55.98552 | 38.18782 | 4975 ft | 222 kts | 232° |
| 2026-04-17 17:13 | 55.97617 | 38.16668 | 4683 ft | 219 kts | 232° |
| 2026-04-17 17:13 | 55.96711 | 38.14615 | 4392 ft | 217 kts | 232° |
| 2026-04-17 17:14 | 55.95833 | 38.12620 | 4103 ft | 216 kts | 232° |
| 2026-04-17 17:14 | 55.94981 | 38.10674 | 3801 ft | 215 kts | 232° |
| 2026-04-17 17:14 | 55.94150 | 38.08767 | 3537 ft | 213 kts | 232° |
| 2026-04-17 17:15 | 55.92363 | 38.04849 | 3204 ft | 218 kts | 228° |